createdAt,value
2023-04-16T00:01:37.338Z,6.80
2023-04-16T00:04:04.463Z,6.70
2023-04-16T00:06:32.210Z,6.70
2023-04-16T00:08:59.093Z,6.70
2023-04-16T00:11:25.918Z,6.60
2023-04-16T00:13:52.676Z,6.60
2023-04-16T00:16:19.428Z,6.60
2023-04-16T00:18:46.649Z,6.50
2023-04-16T00:21:13.379Z,6.50
2023-04-16T00:23:40.219Z,6.50
2023-04-16T00:26:06.956Z,6.50
2023-04-16T00:28:33.695Z,6.40
2023-04-16T00:31:00.533Z,6.40
2023-04-16T00:33:27.210Z,6.40
2023-04-16T00:35:53.925Z,6.40
2023-04-16T00:38:20.875Z,6.40
2023-04-16T00:40:47.588Z,6.40
2023-04-16T00:43:14.314Z,6.30
2023-04-16T00:45:40.994Z,6.30
2023-04-16T00:48:07.814Z,6.30
2023-04-16T00:50:34.758Z,6.30
2023-04-16T00:53:01.645Z,6.30
2023-04-16T00:55:28.379Z,6.30
2023-04-16T00:57:55.110Z,6.30
2023-04-16T01:00:21.776Z,6.30
2023-04-16T01:02:48.596Z,6.30
2023-04-16T01:05:15.528Z,6.30
2023-04-16T01:07:42.268Z,6.30
2023-04-16T01:10:08.949Z,6.20
2023-04-16T01:12:35.690Z,6.20
2023-04-16T01:15:02.357Z,6.20
2023-04-16T01:17:29.152Z,6.20
2023-04-16T01:19:55.989Z,6.10
2023-04-16T01:22:22.784Z,6.10
2023-04-16T01:24:49.433Z,6.10
2023-04-16T01:27:16.357Z,6.10
2023-04-16T01:29:43.077Z,6.10
2023-04-16T01:32:09.775Z,6.10
2023-04-16T01:34:36.492Z,6.10
2023-04-16T01:37:03.159Z,6.10
2023-04-16T01:39:29.932Z,6.10
2023-04-16T01:41:57.240Z,6.10
2023-04-16T01:44:23.920Z,6.10
2023-04-16T01:46:50.639Z,6.10
2023-04-16T01:49:17.436Z,6.00
2023-04-16T01:51:44.138Z,6.00
2023-04-16T01:54:10.958Z,6.00
2023-04-16T01:56:37.673Z,5.90
2023-04-16T01:59:04.365Z,5.90
2023-04-16T02:01:31.089Z,5.90
2023-04-16T02:03:57.860Z,5.90
2023-04-16T02:06:24.584Z,5.90
2023-04-16T02:08:51.374Z,5.90
2023-04-16T02:11:18.118Z,5.90
2023-04-16T02:13:44.852Z,5.90
2023-04-16T02:16:11.657Z,5.80
2023-04-16T02:18:38.376Z,5.90
2023-04-16T02:21:06.566Z,5.90
2023-04-16T02:23:33.342Z,5.80
2023-04-16T02:26:01.239Z,5.80
2023-04-16T02:28:27.961Z,5.80
2023-04-16T02:30:54.819Z,5.80
2023-04-16T02:33:21.593Z,5.80
2023-04-16T02:35:48.793Z,5.70
2023-04-16T02:38:15.466Z,5.70
2023-04-16T02:40:42.257Z,5.70
2023-04-16T02:43:08.995Z,5.70
2023-04-16T02:45:35.827Z,5.70
2023-04-16T02:48:02.680Z,5.70
2023-04-16T02:50:29.531Z,5.70
2023-04-16T02:52:56.269Z,5.70
2023-04-16T02:55:23.118Z,5.80
2023-04-16T02:57:49.823Z,5.80
2023-04-16T03:00:16.586Z,5.70
2023-04-16T03:02:43.443Z,5.80
2023-04-16T03:05:10.335Z,5.80
2023-04-16T03:07:39.223Z,5.80
2023-04-16T03:10:06.022Z,5.80
2023-04-16T03:12:32.730Z,5.80
2023-04-16T03:14:59.405Z,5.80
2023-04-16T03:17:26.198Z,5.80
2023-04-16T03:19:52.964Z,5.80
2023-04-16T03:22:19.795Z,5.80
2023-04-16T03:24:46.577Z,5.90
2023-04-16T03:27:13.253Z,5.80
2023-04-16T03:29:40.006Z,5.80
2023-04-16T03:32:06.910Z,5.90
2023-04-16T03:34:33.572Z,5.80
2023-04-16T03:37:00.413Z,5.80
2023-04-16T03:39:27.187Z,5.90
2023-04-16T03:41:53.848Z,5.90
2023-04-16T03:44:20.875Z,5.90
2023-04-16T03:46:47.613Z,5.90
2023-04-16T03:49:14.400Z,5.90
2023-04-16T03:51:41.082Z,5.90
2023-04-16T03:54:07.781Z,5.90
2023-04-16T03:56:34.436Z,5.90
2023-04-16T03:59:01.178Z,6.00
2023-04-16T04:01:27.900Z,6.00
2023-04-16T04:03:54.694Z,6.00
2023-04-16T04:06:21.584Z,6.00
2023-04-16T04:08:48.254Z,6.10
2023-04-16T04:11:14.934Z,6.10
2023-04-16T04:13:41.652Z,6.10
2023-04-16T04:16:08.413Z,6.10
2023-04-16T04:18:35.134Z,6.10
2023-04-16T04:21:01.870Z,6.10
2023-04-16T04:23:28.565Z,6.10
2023-04-16T04:25:55.295Z,6.10
2023-04-16T04:28:21.908Z,6.10
2023-04-16T04:30:48.628Z,6.20
2023-04-16T04:33:15.317Z,6.20
2023-04-16T04:35:41.988Z,6.30
2023-04-16T04:38:08.648Z,6.30
2023-04-16T04:40:35.384Z,6.30
2023-04-16T04:43:02.088Z,6.40
2023-04-16T04:45:31.134Z,6.40
2023-04-16T04:47:58.633Z,6.50
2023-04-16T04:50:25.519Z,6.50
2023-04-16T04:52:52.170Z,6.60
2023-04-16T04:55:18.863Z,6.60
2023-04-16T04:57:45.547Z,6.50
2023-04-16T05:00:12.217Z,6.60
2023-04-16T05:02:38.946Z,6.50
2023-04-16T05:05:05.893Z,6.60
2023-04-16T05:07:32.650Z,6.60
2023-04-16T05:09:59.381Z,6.60
2023-04-16T05:12:26.082Z,6.50
2023-04-16T05:14:52.718Z,6.60
2023-04-16T05:17:19.467Z,6.60
2023-04-16T05:19:46.211Z,6.60
2023-04-16T05:22:13.178Z,6.60
2023-04-16T05:24:39.909Z,6.70
2023-04-16T05:27:06.645Z,6.70
2023-04-16T05:29:33.367Z,6.70
2023-04-16T05:32:00.120Z,6.80
2023-04-16T05:34:26.800Z,6.70
2023-04-16T05:36:53.466Z,6.80
2023-04-16T05:39:20.363Z,6.80
2023-04-16T05:41:47.061Z,6.90
2023-04-16T05:44:15.297Z,6.90
2023-04-16T05:46:41.960Z,7.00
2023-04-16T05:49:08.961Z,7.00
2023-04-16T05:51:35.949Z,7.00
2023-04-16T05:54:02.627Z,7.10
2023-04-16T05:56:29.371Z,7.10
2023-04-16T05:58:56.049Z,7.10
2023-04-16T06:01:22.936Z,7.20
2023-04-16T06:03:49.784Z,7.20
2023-04-16T06:06:16.535Z,7.30
2023-04-16T06:08:43.237Z,7.30
2023-04-16T06:11:09.902Z,7.40
2023-04-16T06:13:36.727Z,7.40
2023-04-16T06:16:03.410Z,7.40
2023-04-16T06:18:30.166Z,7.50
2023-04-16T06:20:58.858Z,7.60
2023-04-16T06:23:25.763Z,7.60
2023-04-16T06:25:52.513Z,7.70
2023-04-16T06:28:19.147Z,7.80
2023-04-16T06:30:45.845Z,7.80
2023-04-16T06:33:12.603Z,7.90
2023-04-16T06:35:39.349Z,8.00
2023-04-16T06:38:06.115Z,8.10
2023-04-16T06:40:32.745Z,8.20
2023-04-16T06:42:59.446Z,8.30
2023-04-16T06:45:26.128Z,8.40
2023-04-16T06:47:52.901Z,8.50
2023-04-16T06:50:19.799Z,8.60
2023-04-16T06:52:46.613Z,8.70
2023-04-16T06:55:13.382Z,8.80
2023-04-16T06:57:40.968Z,9.00
2023-04-16T07:00:07.729Z,9.10
2023-04-16T07:02:34.628Z,9.20
2023-04-16T07:05:01.486Z,9.30
2023-04-16T07:07:28.097Z,9.40
2023-04-16T07:09:54.775Z,9.60
2023-04-16T07:12:22.595Z,9.70
2023-04-16T07:14:49.700Z,9.80
2023-04-16T07:17:16.362Z,9.90
2023-04-16T07:19:43.015Z,10.00
2023-04-16T07:22:09.721Z,10.10
2023-04-16T07:24:36.531Z,10.20
2023-04-16T07:27:03.166Z,10.40
2023-04-16T07:29:29.821Z,10.50
2023-04-16T07:31:56.795Z,10.60
2023-04-16T07:34:23.564Z,10.70
2023-04-16T07:36:50.559Z,10.90
2023-04-16T07:39:17.326Z,11.00
2023-04-16T07:41:44.097Z,11.10
2023-04-16T07:44:10.917Z,11.20
2023-04-16T07:46:46.103Z,11.30
2023-04-16T07:49:13.462Z,11.40
2023-04-16T07:51:40.184Z,11.50
2023-04-16T07:54:06.870Z,11.70
2023-04-16T07:56:33.557Z,11.80
2023-04-16T07:59:08.013Z,11.80
2023-04-16T08:01:45.801Z,11.90
2023-04-16T08:04:12.641Z,12.00
2023-04-16T08:06:39.387Z,12.00
2023-04-16T08:09:06.153Z,12.00
2023-04-16T08:11:33.266Z,12.10
2023-04-16T08:13:59.930Z,12.20
2023-04-16T08:16:27.153Z,12.30
2023-04-16T08:18:54.122Z,12.30
2023-04-16T08:21:20.817Z,12.20
2023-04-16T08:23:48.203Z,12.30
2023-04-16T08:26:14.868Z,12.50
2023-04-16T08:28:41.553Z,12.60
2023-04-16T08:31:08.317Z,12.60
2023-04-16T08:33:35.059Z,12.70
2023-04-16T08:36:01.784Z,12.80
2023-04-16T08:38:28.504Z,12.90
2023-04-16T08:40:55.158Z,12.90
2023-04-16T08:43:21.823Z,12.90
2023-04-16T08:45:48.647Z,12.90
2023-04-16T08:48:15.677Z,12.90
2023-04-16T08:50:42.340Z,13.00
2023-04-16T08:53:10.276Z,13.00
2023-04-16T08:55:37.792Z,13.00
2023-04-16T08:58:04.615Z,13.20
2023-04-16T09:00:31.517Z,13.30
2023-04-16T09:02:58.480Z,13.50
2023-04-16T09:05:26.416Z,13.70
2023-04-16T09:07:53.076Z,13.80
2023-04-16T09:10:19.789Z,13.90
2023-04-16T09:12:46.442Z,13.90
2023-04-16T09:15:13.091Z,13.90
2023-04-16T09:17:39.804Z,13.90
2023-04-16T09:20:06.454Z,13.70
2023-04-16T09:22:33.545Z,13.90
2023-04-16T09:25:00.318Z,14.10
2023-04-16T09:27:27.120Z,14.10
2023-04-16T09:29:53.852Z,14.20
2023-04-16T09:32:20.576Z,14.30
2023-04-16T09:34:47.218Z,14.30
2023-04-16T09:37:13.882Z,14.40
2023-04-16T09:39:40.492Z,14.60
2023-04-16T09:42:07.214Z,14.80
2023-04-16T09:44:33.865Z,14.80
2023-04-16T09:47:00.534Z,14.80
2023-04-16T09:49:27.263Z,15.00
2023-04-16T09:51:56.147Z,15.10
2023-04-16T09:54:22.773Z,15.20
2023-04-16T09:56:49.542Z,15.30
2023-04-16T09:59:16.176Z,15.30
2023-04-16T10:01:42.925Z,15.20
2023-04-16T10:04:09.676Z,15.20
2023-04-16T10:06:36.401Z,15.10
2023-04-16T10:09:03.020Z,15.10
2023-04-16T10:11:29.653Z,15.40
2023-04-16T10:13:56.386Z,15.40
2023-04-16T10:16:23.685Z,15.50
2023-04-16T10:18:50.723Z,15.60
2023-04-16T10:21:17.366Z,15.50
2023-04-16T10:23:44.069Z,15.50
2023-04-16T10:26:10.910Z,15.60
2023-04-16T10:28:37.558Z,15.60
2023-04-16T10:31:04.266Z,15.60
2023-04-16T10:33:31.036Z,15.50
2023-04-16T10:36:07.078Z,15.50
2023-04-16T10:38:35.410Z,15.60
2023-04-16T10:41:02.203Z,15.80
2023-04-16T10:43:28.938Z,15.80
2023-04-16T10:45:55.931Z,15.90
2023-04-16T10:48:22.644Z,16.00
2023-04-16T10:50:50.389Z,16.00
2023-04-16T10:53:18.753Z,16.10
2023-04-16T10:55:45.395Z,16.20
2023-04-16T10:58:12.043Z,16.00
2023-04-16T11:00:38.752Z,15.90
2023-04-16T11:03:05.488Z,15.80
2023-04-16T11:07:59.742Z,16.00
2023-04-16T11:10:26.363Z,15.70
2023-04-16T11:12:53.011Z,15.90
2023-04-16T11:15:19.713Z,16.20
2023-04-16T11:17:46.400Z,16.30
2023-04-16T11:20:18.105Z,16.50
2023-04-16T11:22:47.340Z,16.80
2023-04-16T11:25:13.981Z,16.90
2023-04-16T11:27:40.680Z,17.00
2023-04-16T11:30:09.581Z,17.10
2023-04-16T11:32:36.258Z,16.90
2023-04-16T11:35:04.618Z,16.90
2023-04-16T11:37:32.053Z,16.90
2023-04-16T11:39:58.732Z,17.00
2023-04-16T11:42:26.827Z,16.80
2023-04-16T11:44:54.150Z,16.50
2023-04-16T11:47:20.943Z,16.50
2023-04-16T11:49:47.741Z,16.60
2023-04-16T11:52:14.431Z,16.70
2023-04-16T11:54:41.125Z,16.70
2023-04-16T11:57:07.968Z,17.10
2023-04-16T11:59:34.690Z,17.30
2023-04-16T12:02:01.578Z,17.40
2023-04-16T12:04:29.603Z,17.30
2023-04-16T12:06:56.406Z,16.90
2023-04-16T12:09:23.338Z,17.00
2023-04-16T12:11:50.013Z,17.20
2023-04-16T12:14:16.775Z,17.40
2023-04-16T12:16:43.515Z,17.60
2023-04-16T12:19:10.438Z,17.70
2023-04-16T12:21:37.396Z,17.60
2023-04-16T12:24:04.058Z,17.50
2023-04-16T12:26:30.731Z,17.60
2023-04-16T12:28:57.438Z,17.60
2023-04-16T12:31:24.198Z,17.70
2023-04-16T12:33:50.986Z,17.90
2023-04-16T12:36:17.708Z,17.90
2023-04-16T12:38:44.410Z,17.70
2023-04-16T12:41:11.316Z,18.10
2023-04-16T12:43:38.062Z,17.80
2023-04-16T12:46:04.925Z,17.50
2023-04-16T12:48:32.694Z,18.10
2023-04-16T12:50:59.373Z,18.10
2023-04-16T12:53:26.236Z,18.00
2023-04-16T12:55:52.897Z,18.30
2023-04-16T12:58:19.518Z,18.50
2023-04-16T13:00:46.330Z,18.50
2023-04-16T13:03:13.634Z,18.60
2023-04-16T13:05:40.495Z,18.50
2023-04-16T13:08:07.250Z,18.80
2023-04-16T13:10:33.917Z,18.90
2023-04-16T13:13:00.769Z,19.20
2023-04-16T13:15:27.456Z,19.50
2023-04-16T13:17:54.234Z,19.60
2023-04-16T13:20:22.466Z,19.40
2023-04-16T13:22:50.689Z,19.70
2023-04-16T13:25:17.361Z,20.30
2023-04-16T13:27:44.089Z,19.80
2023-04-16T13:30:11.128Z,19.90
2023-04-16T13:32:38.016Z,19.60
2023-04-16T13:35:04.767Z,19.80
2023-04-16T13:37:31.469Z,20.10
2023-04-16T13:40:01.133Z,20.90
2023-04-16T13:42:28.565Z,21.30
2023-04-16T13:44:55.299Z,21.50
2023-04-16T13:47:22.059Z,21.00
2023-04-16T13:49:48.834Z,20.20
2023-04-16T13:52:15.697Z,20.00
2023-04-16T13:54:42.842Z,19.50
2023-04-16T13:57:09.650Z,19.30
2023-04-16T13:59:36.342Z,19.20
2023-04-16T14:02:03.052Z,19.20
2023-04-16T14:04:29.728Z,19.00
2023-04-16T14:06:56.400Z,18.80
2023-04-16T14:09:23.038Z,18.60
2023-04-16T14:11:49.682Z,18.70
2023-04-16T14:14:16.424Z,18.60
2023-04-16T14:16:43.176Z,18.50
2023-04-16T14:19:10.818Z,18.30
2023-04-16T14:21:37.723Z,18.30
2023-04-16T14:24:04.337Z,18.30
2023-04-16T14:26:31.116Z,18.20
2023-04-16T14:28:57.863Z,18.20
2023-04-16T14:31:24.637Z,18.00
2023-04-16T14:33:51.315Z,18.00
2023-04-16T14:36:18.126Z,17.60
2023-04-16T14:38:44.860Z,17.70
2023-04-16T14:41:12.627Z,17.70
2023-04-16T14:43:41.327Z,17.80
2023-04-16T14:46:08.092Z,17.70
2023-04-16T14:48:34.759Z,17.50
2023-04-16T14:51:01.645Z,17.50
2023-04-16T14:53:29.610Z,17.50
2023-04-16T14:55:58.985Z,17.60
2023-04-16T14:58:25.902Z,17.50
2023-04-16T15:00:52.600Z,17.30
2023-04-16T15:03:19.708Z,17.40
2023-04-16T15:05:50.871Z,17.80
2023-04-16T15:08:17.517Z,17.90
2023-04-16T15:10:45.860Z,17.80
2023-04-16T15:13:12.538Z,17.60
2023-04-16T15:15:39.162Z,17.70
2023-04-16T15:18:06.068Z,17.60
2023-04-16T15:20:33.055Z,17.60
2023-04-16T15:22:59.843Z,18.00
2023-04-16T15:25:26.556Z,18.10
2023-04-16T15:27:53.323Z,18.00
2023-04-16T15:30:20.116Z,18.00
2023-04-16T15:32:47.032Z,18.10
2023-04-16T15:35:14.053Z,18.00
2023-04-16T15:37:41.164Z,17.90
2023-04-16T15:40:11.124Z,17.70
2023-04-16T15:42:37.852Z,17.70
2023-04-16T15:45:04.644Z,17.50
2023-04-16T15:47:31.403Z,17.20
2023-04-16T15:49:58.144Z,17.20
2023-04-16T15:52:24.817Z,17.40
2023-04-16T15:54:51.415Z,17.20
2023-04-16T15:57:18.110Z,17.30
2023-04-16T15:59:52.908Z,17.30
2023-04-16T16:02:30.793Z,17.50
2023-04-16T16:04:57.848Z,17.60
2023-04-16T16:07:25.363Z,17.60
2023-04-16T16:09:53.189Z,17.60
2023-04-16T16:12:20.148Z,17.60
2023-04-16T16:14:47.028Z,17.40
2023-04-16T16:17:13.776Z,17.00
2023-04-16T16:19:40.510Z,17.00
2023-04-16T16:22:07.882Z,16.90
2023-04-16T16:24:34.607Z,16.80
2023-04-16T16:27:01.700Z,16.80
2023-04-16T16:29:28.347Z,16.70
2023-04-16T16:31:55.032Z,16.70
2023-04-16T16:34:21.721Z,16.60
2023-04-16T16:36:48.409Z,16.50
2023-04-16T16:39:15.138Z,16.40
2023-04-16T16:41:42.343Z,16.40
2023-04-16T16:44:09.082Z,16.30
2023-04-16T16:46:36.735Z,16.20
2023-04-16T16:49:09.445Z,16.10
2023-04-16T16:51:36.306Z,16.10
2023-04-16T16:54:03.102Z,16.00
2023-04-16T16:56:29.783Z,15.90
2023-04-16T16:58:56.903Z,15.80
2023-04-16T17:01:23.605Z,15.60
2023-04-16T17:03:50.643Z,15.50
2023-04-16T17:06:17.398Z,15.50
2023-04-16T17:08:44.220Z,15.50
2023-04-16T17:11:11.084Z,15.50
2023-04-16T17:13:37.820Z,15.50
2023-04-16T17:16:04.517Z,15.40
2023-04-16T17:18:31.230Z,15.50
2023-04-16T17:20:57.898Z,15.60
2023-04-16T17:23:24.613Z,15.70
2023-04-16T17:25:51.342Z,15.60
2023-04-16T17:28:18.073Z,15.60
2023-04-16T17:30:44.725Z,15.50
2023-04-16T17:33:11.579Z,15.40
2023-04-16T17:35:38.375Z,15.40
2023-04-16T17:38:05.169Z,15.40
2023-04-16T17:40:31.860Z,15.50
2023-04-16T17:42:58.624Z,15.50
2023-04-16T17:45:25.577Z,15.50
2023-04-16T17:47:52.285Z,15.60
2023-04-16T17:50:19.001Z,15.50
2023-04-16T17:52:47.516Z,15.50
2023-04-16T17:55:14.192Z,15.40
2023-04-16T17:57:41.086Z,15.40
2023-04-16T18:00:11.327Z,15.40
2023-04-16T18:02:41.700Z,15.40
2023-04-16T18:05:08.478Z,15.40
2023-04-16T18:07:35.742Z,15.40
2023-04-16T18:10:02.420Z,15.30
2023-04-16T18:12:29.229Z,15.30
2023-04-16T18:14:56.031Z,15.30
2023-04-16T18:17:23.384Z,15.30
2023-04-16T18:19:50.281Z,15.20
2023-04-16T18:22:17.093Z,15.20
2023-04-16T18:24:43.890Z,15.10
2023-04-16T18:27:11.984Z,15.10
2023-04-16T18:29:40.552Z,15.10
2023-04-16T18:32:09.890Z,15.10
2023-04-16T18:34:38.711Z,15.00
2023-04-16T18:37:08.707Z,15.00
2023-04-16T18:39:36.985Z,15.00
2023-04-16T18:42:03.999Z,15.00
2023-04-16T18:44:30.766Z,14.90
2023-04-16T18:46:57.617Z,14.80
2023-04-16T18:49:24.448Z,14.80
2023-04-16T18:51:51.541Z,14.80
2023-04-16T18:54:20.053Z,14.80
2023-04-16T18:56:46.732Z,14.70
2023-04-16T18:59:13.840Z,14.70
2023-04-16T19:01:43.791Z,14.70
2023-04-16T19:04:13.011Z,14.60
2023-04-16T19:06:40.298Z,14.60
2023-04-16T19:09:08.409Z,14.50
2023-04-16T19:11:36.856Z,14.50
2023-04-16T19:14:05.538Z,14.50
2023-04-16T19:16:32.267Z,14.50
2023-04-16T19:18:59.043Z,14.40
2023-04-16T19:21:26.135Z,14.30
2023-04-16T19:23:52.806Z,14.30
2023-04-16T19:26:19.590Z,14.30
2023-04-16T19:28:46.352Z,14.20
2023-04-16T19:31:13.086Z,14.20
2023-04-16T19:33:41.230Z,14.10
2023-04-16T19:36:08.020Z,14.00
2023-04-16T19:38:34.655Z,13.90
2023-04-16T19:41:01.349Z,13.90
2023-04-16T19:43:30.896Z,13.90
2023-04-16T19:45:57.964Z,14.00
2023-04-16T19:48:24.682Z,13.90
2023-04-16T19:50:51.480Z,13.90
2023-04-16T19:53:18.327Z,13.90
2023-04-16T19:55:45.087Z,13.80
2023-04-16T19:58:11.909Z,13.80
2023-04-16T20:00:38.693Z,13.80
2023-04-16T20:03:05.669Z,13.70
2023-04-16T20:05:32.951Z,13.60
2023-04-16T20:07:59.677Z,13.60
2023-04-16T20:10:26.685Z,13.50
2023-04-16T20:12:53.492Z,13.50
2023-04-16T20:15:20.163Z,13.60
2023-04-16T20:17:47.103Z,13.50
2023-04-16T20:20:15.922Z,13.40
2023-04-16T20:22:43.205Z,13.40
2023-04-16T20:25:10.145Z,13.40
2023-04-16T20:27:36.929Z,13.30
2023-04-16T20:30:04.317Z,13.30
2023-04-16T20:32:31.163Z,13.30
2023-04-16T20:34:58.120Z,13.30
2023-04-16T20:37:24.876Z,13.30
2023-04-16T20:39:56.362Z,13.30
2023-04-16T20:42:23.334Z,13.30
2023-04-16T20:44:56.481Z,13.30
2023-04-16T20:47:23.405Z,13.30
2023-04-16T20:49:50.559Z,13.30
2023-04-16T20:52:17.404Z,13.20
2023-04-16T20:54:44.246Z,13.20
2023-04-16T20:57:10.985Z,13.20
2023-04-16T20:59:37.660Z,13.10
2023-04-16T21:02:04.444Z,13.10
2023-04-16T21:04:31.285Z,13.10
2023-04-16T21:06:58.138Z,13.10
2023-04-16T21:09:24.810Z,13.10
2023-04-16T21:11:51.525Z,13.10
2023-04-16T21:14:18.173Z,13.10
2023-04-16T21:16:44.806Z,13.10
2023-04-16T21:19:11.594Z,13.10
2023-04-16T21:21:38.964Z,13.00
2023-04-16T21:24:05.726Z,13.00
2023-04-16T21:26:32.516Z,13.00
2023-04-16T21:28:59.335Z,13.00
2023-04-16T21:31:26.315Z,13.00
2023-04-16T21:33:52.987Z,13.00
2023-04-16T21:36:19.654Z,13.00
2023-04-16T21:38:46.363Z,13.10
2023-04-16T21:41:13.008Z,13.00
2023-04-16T21:43:39.741Z,13.10
2023-04-16T21:46:06.388Z,13.10
2023-04-16T21:48:33.033Z,13.00
2023-04-16T21:51:00.008Z,13.00
2023-04-16T21:53:28.185Z,13.00
2023-04-16T21:55:54.878Z,13.00
2023-04-16T21:58:21.567Z,13.00
2023-04-16T22:00:48.376Z,13.00
2023-04-16T22:03:17.453Z,13.00
2023-04-16T22:05:44.938Z,13.00
2023-04-16T22:10:43.967Z,13.00
2023-04-16T22:13:12.855Z,13.00
2023-04-16T22:15:39.976Z,13.00
2023-04-16T22:18:06.732Z,13.00
2023-04-16T22:20:39.132Z,12.90
2023-04-16T22:23:06.032Z,12.80
2023-04-16T22:25:32.848Z,12.90
2023-04-16T22:27:59.611Z,12.90
2023-04-16T22:30:26.344Z,12.90
2023-04-16T22:32:53.227Z,12.80
2023-04-16T22:35:19.873Z,12.90
2023-04-16T22:37:46.655Z,12.80
2023-04-16T22:40:13.376Z,12.80
2023-04-16T22:42:40.171Z,12.80
2023-04-16T22:45:07.510Z,12.80
2023-04-16T22:47:34.298Z,12.80
2023-04-16T22:50:01.094Z,12.80
2023-04-16T22:52:27.766Z,12.80
2023-04-16T22:54:54.463Z,12.80
2023-04-16T22:57:24.826Z,12.70
2023-04-16T22:59:51.737Z,12.80
2023-04-16T23:02:18.477Z,12.70
2023-04-16T23:04:46.225Z,12.60
2023-04-16T23:07:12.969Z,12.60
2023-04-16T23:09:39.608Z,12.60
2023-04-16T23:12:06.376Z,12.60
2023-04-16T23:14:33.083Z,12.60
2023-04-16T23:16:59.759Z,12.60
2023-04-16T23:19:26.520Z,12.60
2023-04-16T23:21:53.120Z,12.60
2023-04-16T23:24:19.816Z,12.60
2023-04-16T23:26:46.521Z,12.60
2023-04-16T23:29:13.447Z,12.60
2023-04-16T23:31:40.354Z,12.50
2023-04-16T23:34:07.233Z,12.50
2023-04-16T23:36:33.923Z,12.50
2023-04-16T23:39:00.911Z,12.50
2023-04-16T23:41:28.098Z,12.50
2023-04-16T23:43:54.734Z,12.50
2023-04-16T23:46:21.555Z,12.50
2023-04-16T23:48:48.252Z,12.50
2023-04-16T23:51:14.949Z,12.50
2023-04-16T23:53:41.605Z,12.50
2023-04-16T23:56:11.133Z,12.50
2023-04-16T23:58:38.031Z,12.50
